Time;durP1;ratioP1;P1;durP2;ratioP2;P2;SDS_P1;SDS_P2;PMS_P1;PMS_P2;Temp;Humidity;BMP_temperature;BMP_pressure;BME280_temperature;BME280_humidity;BME280_pressure;Samples;Min_cycle;Max_cycle;Signal;HPM_P1;HPM_P2
2022/09/18 00:02:46;;;;;;;8.55;7.20;;;;;;;22.60;46.72;99369.50;20738141;28;20446;-87
2022/09/18 00:12:46;;;;;;;8.25;6.93;;;;;;;22.57;46.63;99375.91;20739497;28;20069;-87
2022/09/18 00:22:48;;;;;;;8.18;6.95;;;;;;;22.58;46.77;99366.19;20739068;28;20034;-87
2022/09/18 00:32:48;;;;;;;8.63;7.43;;;;;;;22.55;46.42;99369.94;20752202;28;20455;-87
2022/09/18 00:42:48;;;;;;;8.07;7.28;;;;;;;22.57;46.61;99369.78;20768494;28;20120;-87
2022/09/18 00:53:01;;;;;;;8.15;7.13;;;;;;;22.56;46.29;99355.78;20749523;28;20081;-87
2022/09/18 01:03:03;;;;;;;7.90;7.10;;;;;;;22.53;46.32;99371.91;20766917;28;20046;-87
2022/09/18 01:13:06;;;;;;;8.70;7.70;;;;;;;22.54;46.20;99384.13;20751746;28;20069;-86
2022/09/18 01:23:46;;;;;;;9.23;8.23;;;;;;;22.52;46.54;99376.38;20744537;28;20049;-86
2022/09/18 01:33:55;;;;;;;9.45;7.60;;;;;;;22.52;46.24;99386.91;20737157;28;20112;-87
2022/09/18 01:44:01;;;;;;;8.82;7.00;;;;;;;22.49;46.43;99395.13;20747329;28;20076;-86
2022/09/18 01:54:09;;;;;;;7.75;6.93;;;;;;;22.48;46.41;99411.94;20761923;28;20073;-85
2022/09/18 02:04:15;;;;;;;7.88;7.07;;;;;;;22.47;46.32;99426.13;20760671;28;20034;-87
2022/09/18 02:14:22;;;;;;;7.43;6.50;;;;;;;22.46;46.08;99453.47;20744625;28;20046;-87
2022/09/18 02:24:32;;;;;;;7.80;7.00;;;;;;;22.46;46.14;99477.22;20744005;28;20045;-87
2022/09/18 02:34:34;;;;;;;9.73;7.68;;;;;;;22.44;46.19;99478.34;20759616;28;20099;-87
2022/09/18 02:44:40;;;;;;;8.63;7.73;;;;;;;22.44;46.07;99489.72;20732133;28;20073;-87
2022/09/18 02:54:52;;;;;;;8.95;8.05;;;;;;;22.44;46.30;99494.19;20740940;28;20053;-86
2022/09/18 03:04:53;;;;;;;9.15;7.97;;;;;;;22.42;46.22;99498.75;20738906;28;20551;-87
2022/09/18 03:14:54;;;;;;;9.40;8.40;;;;;;;22.41;45.87;99508.50;20738757;28;20523;-87
2022/09/18 03:24:55;;;;;;;8.90;7.88;;;;;;;22.34;46.04;99502.94;20756025;28;20397;-87
2022/09/18 03:34:56;;;;;;;9.10;7.60;;;;;;;22.35;46.27;99517.78;20741005;28;20609;-87
2022/09/18 03:44:59;;;;;;;9.00;7.53;;;;;;;22.36;46.22;99523.88;20741488;28;20080;-87
2022/09/18 03:54:59;;;;;;;7.78;6.97;;;;;;;22.34;45.77;99531.94;20736126;28;20042;-87
2022/09/18 04:05:01;;;;;;;7.53;6.72;;;;;;;22.34;45.97;99528.50;20752361;28;20440;-87
2022/09/18 04:15:01;;;;;;;8.02;6.47;;;;;;;22.30;45.92;99541.16;20753629;28;20042;-87
2022/09/18 04:25:03;;;;;;;7.35;6.47;;;;;;;22.29;46.02;99538.63;20743759;28;20388;-86
2022/09/18 04:35:11;;;;;;;7.40;6.57;;;;;;;22.29;46.11;99551.81;20742343;28;20068;-87
2022/09/18 04:45:11;;;;;;;7.45;6.47;;;;;;;22.27;45.93;99572.25;20750947;28;20057;-86
2022/09/18 04:55:11;;;;;;;7.05;6.15;;;;;;;22.25;45.90;99596.09;20754571;28;20513;-87
2022/09/18 05:05:12;;;;;;;7.65;6.78;;;;;;;22.25;45.55;99608.47;20748324;28;20037;-86
2022/09/18 05:15:12;;;;;;;7.05;6.32;;;;;;;22.17;45.79;99607.38;20758825;28;20469;-87
2022/09/18 05:25:13;;;;;;;7.13;6.25;;;;;;;22.24;45.75;99610.28;20743183;28;20045;-86
2022/09/18 05:35:13;;;;;;;7.20;6.50;;;;;;;22.22;45.56;99628.88;20739899;28;20050;-86
2022/09/18 05:45:18;;;;;;;7.57;6.60;;;;;;;22.23;45.83;99627.91;20749620;28;20463;-86
2022/09/18 05:55:19;;;;;;;7.03;6.32;;;;;;;22.22;45.83;99614.88;20746416;28;20038;-86
2022/09/18 06:05:19;;;;;;;6.78;6.07;;;;;;;22.22;45.51;99620.97;20746766;28;20680;-86
2022/09/18 06:15:20;;;;;;;8.18;7.18;;;;;;;22.20;45.43;99630.84;20748468;28;20038;-86
2022/09/18 06:25:22;;;;;;;8.10;7.07;;;;;;;22.20;45.58;99630.00;20752853;28;20435;-87
2022/09/18 06:35:23;;;;;;;7.95;7.00;;;;;;;22.21;45.59;99639.56;20756829;28;20061;-87
2022/09/18 06:45:24;;;;;;;8.43;7.32;;;;;;;22.20;45.38;99654.56;20753938;28;20061;-87
2022/09/18 06:55:25;;;;;;;7.80;7.00;;;;;;;22.20;45.37;99640.53;20752999;28;20160;-86
2022/09/18 07:05:28;;;;;;;8.57;7.35;;;;;;;22.21;45.27;99661.50;20742794;28;20073;-88
2022/09/18 07:15:32;;;;;;;8.85;7.38;;;;;;;22.20;45.23;99667.75;20746881;28;20081;-87
2022/09/18 07:25:33;;;;;;;8.60;7.70;;;;;;;22.19;45.32;99668.72;20768896;28;20038;-86
2022/09/18 07:35:33;;;;;;;9.55;7.28;;;;;;;22.22;45.07;99693.97;20756603;28;20069;-86
2022/09/18 07:45:34;;;;;;;7.55;6.72;;;;;;;22.21;45.00;99702.88;20786813;28;20069;-87
2022/09/18 07:55:35;;;;;;;7.07;6.32;;;;;;;22.20;44.77;99709.97;20766185;28;20097;-88
2022/09/18 08:05:41;;;;;;;6.38;5.68;;;;;;;22.20;44.53;99702.03;20777798;28;20057;-86
2022/09/18 08:15:42;;;;;;;7.78;6.05;;;;;;;22.21;44.87;99721.31;20757838;28;20505;-88
2022/09/18 08:25:43;;;;;;;6.03;5.43;;;;;;;22.23;44.65;99737.84;20755735;28;20461;-87
2022/09/18 08:35:44;;;;;;;6.13;5.40;;;;;;;22.22;44.76;99750.19;20752433;28;20056;-87
2022/09/18 08:46:18;;;;;;;5.88;5.28;;;;;;;22.23;44.54;99751.03;20742827;28;20062;-87
2022/09/18 08:56:22;;;;;;;5.75;5.15;;;;;;;22.21;44.74;99755.59;20754727;28;20053;-87
2022/09/18 09:07:01;;;;;;;5.85;5.25;;;;;;;22.22;44.88;99759.91;20741442;28;20034;-85
2022/09/18 09:17:20;;;;;;;6.45;5.78;;;;;;;22.20;44.48;99756.56;20741447;28;20125;-86
2022/09/18 09:27:31;;;;;;;7.03;6.32;;;;;;;22.20;44.47;99748.66;20741149;28;20115;-86
2022/09/18 09:37:42;;;;;;;8.38;7.28;;;;;;;22.21;44.58;99759.06;20752247;28;20053;-85
2022/09/18 09:48:20;;;;;;;9.02;7.88;;;;;;;22.21;44.59;99787.25;20767144;28;20034;-86
2022/09/18 09:58:50;;;;;;;14.90;8.90;;;;;;;22.18;44.93;99791.00;20706022;28;20053;-77
2022/09/18 10:09:42;;;;;;;10.30;6.55;;;;;;;22.16;42.01;99794.75;20707225;28;20096;-73
2022/09/18 10:19:43;;;;;;;9.35;2.90;;;;;;;21.71;38.27;99799.56;20669101;28;21387;-73
2022/09/18 10:29:44;;;;;;;5.15;2.00;;;;;;;21.78;38.59;99822.78;20688644;28;20183;-73
2022/09/18 10:39:51;;;;;;;4.68;1.40;;;;;;;21.86;38.50;99796.53;20686762;28;20080;-73
2022/09/18 10:49:56;;;;;;;3.35;1.02;;;;;;;21.89;38.18;99820.81;20700790;28;20145;-74
2022/09/18 10:59:57;;;;;;;6.68;1.30;;;;;;;22.04;39.91;99807.25;20680547;28;20046;-74
2022/09/18 11:10:07;;;;;;;6.25;2.25;;;;;;;22.16;43.79;99805.31;20677180;28;20081;-74
2022/09/18 11:20:22;;;;;;;8.52;2.70;;;;;;;22.30;44.71;99807.53;20676992;28;20045;-77
2022/09/18 11:30:26;;;;;;;10.05;3.95;;;;;;;22.42;44.99;99795.03;20679477;28;20053;-76
2022/09/18 11:40:31;;;;;;;2.65;1.33;;;;;;;21.96;36.10;99802.66;20689183;28;20073;-77
2022/09/18 11:50:35;;;;;;;2.33;1.00;;;;;;;21.98;38.09;99787.53;20711625;28;20050;-76
2022/09/18 12:01:01;;;;;;;2.17;1.35;;;;;;;22.19;39.52;99797.94;20696171;28;20088;-77
2022/09/18 12:11:17;;;;;;;5.45;1.60;;;;;;;22.29;40.60;99773.34;20690165;28;20153;-79
2022/09/18 12:21:22;;;;;;;4.22;2.20;;;;;;;22.38;42.94;99776.00;20707174;28;20132;-77
2022/09/18 12:31:26;;;;;;;3.65;2.22;;;;;;;22.44;43.88;99771.97;20708787;28;20049;-77
2022/09/18 12:41:39;;;;;;;3.58;2.38;;;;;;;22.46;43.32;99775.31;20715003;28;20042;-75
2022/09/18 12:51:46;;;;;;;4.03;2.78;;;;;;;22.55;44.48;99771.81;20700704;28;20053;-77
2022/09/18 13:02:05;;;;;;;8.32;3.40;;;;;;;22.69;44.51;99762.63;20702286;28;20042;-75
2022/09/18 13:12:17;;;;;;;5.60;3.80;;;;;;;22.93;44.98;99761.25;20710927;28;20046;-77
2022/09/18 13:22:18;;;;;;;;;;;;;;;22.91;46.71;99754.47;20709750;28;20052;-76
2022/09/18 13:32:31;;;;;;;6.18;4.40;;;;;;;23.01;49.00;99761.38;20701347;28;20032;-75
2022/09/18 13:42:35;;;;;;;8.13;4.50;;;;;;;23.04;48.42;99781.38;20683919;28;20061;-75
2022/09/18 13:52:40;;;;;;;3.33;2.10;;;;;;;22.68;40.26;99823.47;20705477;28;20048;-77
2022/09/18 14:02:40;;;;;;;5.05;2.78;;;;;;;22.80;42.80;99843.44;20707802;28;20042;-75
2022/09/18 14:13:20;;;;;;;7.78;3.30;;;;;;;22.84;44.50;99842.16;20690023;28;20404;-77
2022/09/18 14:23:34;;;;;;;6.90;3.65;;;;;;;22.95;45.95;99841.16;20702669;28;20042;-76
2022/09/18 14:33:35;;;;;;;8.73;5.80;;;;;;;23.18;46.38;99844.31;20693687;28;20940;-77
2022/09/18 14:43:46;;;;;;;11.63;6.90;;;;;;;23.37;46.10;99839.91;20685164;28;20076;-78
2022/09/18 14:53:49;;;;;;;15.77;8.10;;;;;;;23.57;46.77;99837.16;20679125;28;20052;-81
2022/09/18 15:03:52;;;;;;;15.20;7.60;;;;;;;23.79;46.82;99841.19;20721044;28;20623;-82
2022/09/18 15:13:54;;;;;;;12.23;6.80;;;;;;;24.04;46.49;99852.06;20710734;28;20061;-80
2022/09/18 15:23:56;;;;;;;22.15;10.55;;;;;;;24.15;46.15;99841.25;20714170;28;20040;-80
2022/09/18 15:34:28;;;;;;;19.95;10.30;;;;;;;24.22;45.09;99838.84;20731869;28;20034;-83
2022/09/18 15:44:37;;;;;;;18.92;8.55;;;;;;;24.09;45.34;99860.38;20719757;28;20089;-79
2022/09/18 15:55:05;;;;;;;1.33;1.15;;;;;;;23.01;34.27;99859.06;20712022;28;20096;-79
2022/09/18 16:05:11;;;;;;;1.75;0.40;;;;;;;22.57;33.85;99873.72;20715014;28;20045;-80
2022/09/18 16:15:15;;;;;;;0.38;0.30;;;;;;;21.84;33.87;99896.03;20706719;28;20223;-78
2022/09/18 16:25:28;;;;;;;3.58;0.40;;;;;;;22.49;36.13;99893.72;20706436;28;20054;-76
2022/09/18 16:35:28;;;;;;;7.30;1.05;;;;;;;22.75;40.69;99910.81;20679073;28;20062;-76
2022/09/18 16:45:29;;;;;;;7.35;0.70;;;;;;;22.91;43.89;99899.66;20692041;28;20074;-74
2022/09/18 16:55:32;;;;;;;7.22;1.30;;;;;;;23.02;46.57;99905.63;20680355;28;20034;-77
2022/09/18 17:05:33;;;;;;;8.77;1.00;;;;;;;23.13;45.71;99907.28;20681873;28;20037;-78
2022/09/18 17:15:36;;;;;;;3.13;1.30;;;;;;;23.18;44.95;99902.41;20687302;28;20033;-77
2022/09/18 17:25:39;;;;;;;3.33;1.40;;;;;;;23.17;44.98;99908.66;20675300;28;20896;-78
2022/09/18 17:35:40;;;;;;;5.60;1.05;;;;;;;23.17;44.85;99926.34;20663598;28;20463;-77
2022/09/18 17:45:41;;;;;;;6.55;1.90;;;;;;;23.11;45.06;99929.50;20709559;28;20125;-82
2022/09/18 17:55:44;;;;;;;5.80;1.80;;;;;;;23.11;45.81;99938.25;20694862;28;20042;-78
2022/09/18 18:05:52;;;;;;;8.73;2.17;;;;;;;23.09;45.84;99955.22;20713371;28;20072;-80
2022/09/18 18:15:52;;;;;;;5.32;2.15;;;;;;;22.96;46.18;99959.00;20720235;28;20064;-75
2022/09/18 18:25:53;;;;;;;7.40;1.90;;;;;;;22.92;46.38;99962.88;20699894;28;20125;-76
2022/09/18 18:35:54;;;;;;;4.72;2.20;;;;;;;22.83;46.38;99969.00;20698086;28;20299;-76
2022/09/18 18:45:55;;;;;;;6.73;2.20;;;;;;;22.85;45.95;99974.97;20696314;28;20076;-78
2022/09/18 18:56:15;;;;;;;4.37;2.57;;;;;;;22.77;46.34;99977.50;20732079;28;20068;-78
2022/09/18 19:06:15;;;;;;;8.15;2.60;;;;;;;22.76;46.36;99983.75;20714672;28;20124;-76
2022/09/18 19:16:18;;;;;;;5.05;2.90;;;;;;;22.76;46.71;99976.66;20708299;28;20042;-77
2022/09/18 19:26:24;;;;;;;9.93;3.40;;;;;;;22.71;47.14;99966.50;20712075;28;20093;-76
2022/09/18 19:36:27;;;;;;;6.32;3.08;;;;;;;22.70;47.18;99967.50;20704065;28;20042;-76
2022/09/18 19:46:30;;;;;;;4.60;3.33;;;;;;;22.65;47.43;99974.97;20698585;28;20070;-76
2022/09/18 19:56:30;;;;;;;4.60;3.70;;;;;;;22.67;47.20;99980.13;20699521;28;20120;-76
2022/09/18 20:06:31;;;;;;;7.82;4.15;;;;;;;22.64;47.63;99986.53;20703873;28;20125;-76
2022/09/18 20:16:32;;;;;;;6.35;4.53;;;;;;;22.64;47.82;99973.34;20729558;28;20049;-78
2022/09/18 20:26:32;;;;;;;5.60;4.43;;;;;;;22.64;47.72;99972.47;20719596;28;20439;-77
2022/09/18 20:36:33;;;;;;;6.97;5.38;;;;;;;22.68;48.02;99960.69;20712302;28;20046;-76
2022/09/18 20:46:34;;;;;;;7.40;6.00;;;;;;;22.67;48.17;99951.94;20714577;28;20030;-77
2022/09/18 20:56:43;;;;;;;9.52;6.78;;;;;;;22.67;48.49;99948.47;20731980;28;20050;-77
2022/09/18 21:06:54;;;;;;;9.80;7.00;;;;;;;22.68;48.35;99931.66;20728445;28;20044;-77
2022/09/18 21:16:55;;;;;;;9.35;7.65;;;;;;;22.68;48.51;99931.66;20728100;28;20183;-76
2022/09/18 21:26:56;;;;;;;11.43;7.20;;;;;;;22.64;48.65;99930.25;20710908;28;20125;-76
2022/09/18 21:37:00;;;;;;;10.93;8.30;;;;;;;22.74;49.47;99936.38;20698123;28;20555;-77
2022/09/18 21:47:05;;;;;;;10.52;8.02;;;;;;;22.72;49.31;99930.41;20707450;28;20068;-77
2022/09/18 21:57:06;;;;;;;9.15;7.30;;;;;;;22.70;49.32;99922.63;20717580;28;20088;-76
2022/09/18 22:07:06;;;;;;;8.68;7.22;;;;;;;22.68;49.39;99919.28;20709355;28;20117;-77
2022/09/18 22:17:08;;;;;;;9.35;7.45;;;;;;;22.67;49.28;99912.34;20726782;28;20054;-77
2022/09/18 22:27:09;;;;;;;10.27;7.53;;;;;;;22.67;49.24;99893.03;20718463;28;20050;-77
2022/09/18 22:37:10;;;;;;;8.15;6.82;;;;;;;22.64;49.42;99882.75;20726108;28;20052;-76
2022/09/18 22:47:11;;;;;;;7.65;6.82;;;;;;;22.66;49.24;99894.84;20706386;28;20034;-76
2022/09/18 22:57:11;;;;;;;8.10;6.95;;;;;;;22.62;49.19;99872.34;20707202;28;20121;-76
2022/09/18 23:07:12;;;;;;;7.95;6.75;;;;;;;22.63;49.11;99865.25;20695921;28;20099;-76
2022/09/18 23:17:12;;;;;;;7.40;6.35;;;;;;;22.61;49.32;99868.03;20689255;28;20046;-76
2022/09/18 23:27:14;;;;;;;7.78;6.22;;;;;;;22.61;49.54;99881.25;20711086;28;20049;-76
2022/09/18 23:37:14;;;;;;;9.10;6.27;;;;;;;22.59;49.35;99880.53;20697910;28;20770;-75
2022/09/18 23:47:14;;;;;;;7.03;6.07;;;;;;;22.58;49.15;99870.94;20713251;28;20088;-76
2022/09/18 23:57:15;;;;;;;7.22;6.10;;;;;;;22.58;49.47;99856.94;20706134;28;20046;-75
